Aviation Digital Data Service (ADDS)

Output produced by METARs form (1159 UTC 01 July 2015)
found at http://www.aviationweather.gov/adds/metars/
 
KUNV 011153Z 21009KT 7SM SCT017 17/15 A2983
KUNV 011053Z 24006KT 7SM OVC017 16/15 A2984
KUNV 010953Z 21004KT 7SM OVC017 16/15 A2983 RMK LTG DSNT E
KUNV 010935Z AUTO 20003KT 7SM OVC017 16/15 A2983 RMK AO2 LTG DSNT W T01620151
KUNV 010915Z AUTO 19004KT 7SM OVC017 16/15 A2983 RMK AO2 LTG DSNT SW T01630150
KUNV 010855Z AUTO 23005KT 7SM SCT020 16/15 A2983 RMK AO2 LTG DSNT SW T01600147
KUNV 010835Z AUTO 21003KT 10SM SCT026 16/15 A2984 RMK AO2 LTG DSNT NE AND SW T01610147
KUNV 010815Z AUTO 21003KT 10SM OVC024 16/15 A2983 RMK AO2 LTG DSNT SW T01630150
KUNV 010755Z AUTO 20003KT 10SM OVC020 17/15 A2984 RMK AO2 T01650150
KUNV 010735Z AUTO 00000KT 5SM BR OVC020 16/15 A2983 RMK AO2 LTG DSNT E T01550150
KUNV 010715Z AUTO 00000KT 10SM BKN020 16/15 A2982 RMK AO2 LTG DSNT E T01620149
KUNV 010655Z AUTO 00000KT 10SM SCT022 SCT055 SCT070 16/15 A2982 RMK AO2 LTG DSNT SE T01600146
KUNV 010635Z AUTO 20003KT 7SM SCT024 SCT055 SCT080 16/15 A2982 RMK AO2 LTG DSNT E T01550148
KUNV 010615Z AUTO 19003KT 10SM CLR 16/15 A2982 RMK AO2 T01560146
KUNV 010555Z AUTO 25006KT 10SM SCT023 SCT080 SCT100 17/15 A2983 RMK AO2 T01650149 10197 20165
KUNV 010535Z AUTO 21003KT 10SM BKN023 BKN080 OVC100 17/16 A2983 RMK AO2 LTG DSNT E T01700157
KUNV 010515Z AUTO 21003KT 10SM BKN023 BKN029 OVC100 17/16 A2984 RMK AO2 T01710158
KUNV 010455Z AUTO 00000KT 10SM BKN027 OVC100 17/16 A2984 RMK AO2 LTG DSNT E T01740163
KUNV 010435Z AUTO 00000KT 10SM BKN029 OVC110 18/16 A2985 RMK AO2 LTG DSNT E T01750162
KUNV 010415Z AUTO 23003KT 10SM OVC110 18/17 A2984 RMK AO2 T01760168
KUNV 010355Z AUTO 00000KT 10SM OVC110 17/16 A2984 RMK AO2 LTG DSNT E AND SE T01740160 402400157
KUNV 010335Z AUTO 00000KT 10SM BKN110 18/16 A2984 RMK AO2 LTG DSNT E T01750158
KUNV 010315Z AUTO 25006KT 10SM SCT120 19/15 A2984 RMK AO2 LTG DSNT E T01850154
KUNV 010255Z AUTO 00000KT 10SM SCT120 19/17 A2983 RMK AO2 LTG DSNT SE T01850173
KUNV 010235Z AUTO 00000KT 7SM BKN120 18/18 A2984 RMK AO2 LTG DSNT SE T01810175
KUNV 010215Z AUTO 29004KT 10SM SCT032 SCT049 SCT060 18/18 A2983 RMK AO2 T01830175
KUNV 010053Z 00000KT 7SM SCT035 19/18 A2982
KUNV 302353Z 00000KT 10SM SCT032 SCT060 20/18 A2982
KUNV 302253Z 20005KT 7SM SCT048 BKN110 19/16 A2981
KUNV 302153Z 17006KT 7SM SCT043 BKN060 22/19 A2981
KUNV 302140Z COR 20006KT 6SM RA HZ SCT044 BKN070 23/18 A2979
KUNV 302053Z 18006KT 10SM SCT110 23/19 A2982
KUNV 301953Z 20005KT 10SM SCT070 SCT080 24/18 A2983 RMK LTG DSNT E
KUNV 301853Z 18008KT 10SM SCT070 SCT080 23/19 A2986 RMK LTG DSNT N AND SE
KUNV 301753Z 22005KT 10SM VCTS SCT026 SCT031 BKN044 23/18 A2987 RMK LTG DSNT SW
KUNV 301653Z 23009KT 10SM SCT022 BKN031 OVC040 22/18 A2990
KUNV 301553Z 23005KT 10SM SCT029 SCT037 OVC050 21/18 A2991
KUNV 301453Z 20004KT 10SM SCT011 BKN026 OVC043 20/17 A2990
KUNV 301353Z 00000KT 10SM OVC028 19/17 A2990
KUNV 301253Z 00000KT 10SM BKN028 OVC035 18/16 A2991
KUNV 301153Z 00000KT 10SM -RA SCT020 BKN039 OVC055 16/16 A2991
KUNV 301126Z 36003KT 6SM RA BR BKN039 BKN050 OVC100 17/16 A2990
KUNV 301053Z 36003KT 10SM OVC041 16/15 A2990
KUNV 300953Z 00000KT 10SM SCT020 BKN043 OVC100 16/15 A2989 RMK LTG DIST SW
KUNV 300935Z AUTO 02004KT 10SM SCT020 BKN043 OVC080 16/15 A2989 RMK AO2 LTG DSNT SW T01600153
KUNV 300915Z AUTO 36006KT 10SM SCT041 BKN090 OVC100 16/15 A2988 RMK AO2 T01600153
KUNV 300855Z AUTO 01005KT 10SM OVC100 16/15 A2989 RMK AO2 T01610153
KUNV 300835Z AUTO 04003KT 10SM -DZ SCT070 SCT085 OVC110 16/15 A2989 RMK AO2 LTG DSNT SW T01610153
KUNV 300815Z AUTO 00000KT 10SM SCT070 BKN090 BKN120 16/15 A2989 RMK AO2 T01620152
KUNV 300755Z AUTO 04003KT 10SM SCT060 SCT070 BKN120 16/15 A2990 RMK AO2 T01600151
KUNV 300735Z AUTO 03004KT 10SM SCT060 SCT070 BKN080 16/15 A2990 RMK AO2 T01610151
KUNV 300715Z AUTO 02004KT 10SM SCT048 BKN090 16/16 A2990 RMK AO2 T01610156
KUNV 300655Z AUTO 01003KT 10SM SCT048 BKN090 BKN120 16/16 A2990 RMK AO2 T01620156
KUNV 300635Z AUTO 00000KT 10SM SCT050 SCT080 BKN090 16/16 A2991 RMK AO2 T01620155
KUNV 300615Z AUTO 00000KT 10SM OVC050 17/15 A2992 RMK AO2 T01650154
KUNV 300555Z AUTO 02004KT 10SM OVC050 17/16 A2992 RMK AO2 T01650156 10187 20165
KUNV 300535Z AUTO 04003KT 10SM BKN060 BKN080 OVC100 17/16 A2993 RMK AO2 T01650155
KUNV 300515Z AUTO 03003KT 10SM SCT070 BKN080 OVC100 17/15 A2993 RMK AO2 T01660154
KUNV 300455Z AUTO 03003KT 10SM -RA OVC070 17/15 A2994 RMK AO2 T01680150
KUNV 300435Z AUTO 05005KT 10SM SCT060 OVC070 17/15 A2994 RMK AO2 T01700150
KUNV 300415Z AUTO 03004KT 10SM SCT060 OVC070 17/15 A2994 RMK AO2 T01730149
KUNV 300355Z AUTO 04003KT 10SM BKN070 OVC090 17/15 A2995 RMK AO2 T01710145 402490119
KUNV 300335Z AUTO 05004KT 10SM SCT080 OVC090 17/15 A2995 RMK AO2 T01710147
KUNV 300315Z AUTO 04004KT 10SM OVC080 18/15 A2995 RMK AO2 T01760147
KUNV 300255Z AUTO 00000KT 10SM OVC080 18/15 A2995 RMK AO2 T01760150
KUNV 300235Z AUTO 01003KT 10SM BKN090 OVC100 18/15 A2995 RMK AO2 T01770150
KUNV 300215Z AUTO 00000KT 10SM BKN100 OVC120 18/15 A2996 RMK AO2 T01750150
KUNV 300053Z 00000KT 10SM BKN050 BKN060 OVC080 19/14 A2996